createdAt,value
2023-03-12T00:02:10.999Z,97208.19
2023-03-12T00:04:52.917Z,97213.14
2023-03-12T00:07:20.964Z,97218.61
2023-03-12T00:09:49.313Z,97225.04
2023-03-12T00:12:18.132Z,97225.31
2023-03-12T00:14:48.866Z,97225.84
2023-03-12T00:17:37.658Z,97226.16
2023-03-12T00:20:07.227Z,97229.67
2023-03-12T00:22:55.982Z,97230.41
2023-03-12T00:25:24.631Z,97231.52
2023-03-12T00:27:52.898Z,97234.77
2023-03-12T00:30:21.477Z,97235.89
2023-03-12T00:32:49.683Z,97236.83
2023-03-12T00:35:33.151Z,97242.91
2023-03-12T00:38:13.794Z,97249.88
2023-03-12T00:41:12.934Z,97249.35
2023-03-12T00:44:08.737Z,97248.91
2023-03-12T00:47:02.708Z,97250.03
2023-03-12T00:49:33.865Z,97252.26
2023-03-12T00:52:02.768Z,97246.94
2023-03-12T00:54:54.484Z,97250.71
2023-03-12T00:57:25.710Z,97255.02
2023-03-12T00:59:53.838Z,97259.87
2023-03-12T01:02:42.999Z,97262.38
2023-03-12T01:05:15.990Z,97267.38
2023-03-12T01:08:04.737Z,97274.42
2023-03-12T01:10:33.430Z,97274.41
2023-03-12T01:13:01.599Z,97272.98
2023-03-12T01:15:30.661Z,97276.77
2023-03-12T01:18:01.716Z,97275.60
2023-03-12T01:20:53.725Z,97273.75
2023-03-12T01:23:21.916Z,97269.92
2023-03-12T01:25:51.944Z,97263.25
2023-03-12T01:28:20.183Z,97260.77
2023-03-12T01:30:51.564Z,97259.12
2023-03-12T01:33:26.432Z,97257.98
2023-03-12T01:35:54.678Z,97255.94
2023-03-12T01:38:35.378Z,97250.83
2023-03-12T01:41:05.813Z,97255.36
2023-03-12T01:43:47.390Z,97254.30
2023-03-12T01:46:27.655Z,97254.42
2023-03-12T01:49:29.928Z,97260.86
2023-03-12T01:52:10.576Z,97265.37
2023-03-12T01:55:13.079Z,97266.87
2023-03-12T01:57:55.535Z,97274.98
2023-03-12T02:00:31.716Z,97282.64
2023-03-12T02:03:18.031Z,97285.94
2023-03-12T02:06:14.673Z,97285.88
2023-03-12T02:08:47.655Z,97295.56
2023-03-12T02:11:19.445Z,97296.52
2023-03-12T02:13:53.019Z,97296.03
2023-03-12T02:16:48.135Z,97296.52
2023-03-12T02:20:22.212Z,97296.16
2023-03-12T02:23:22.736Z,97290.70
2023-03-12T02:25:56.566Z,97292.41
2023-03-12T02:28:29.002Z,97290.63
2023-03-12T02:31:06.922Z,97292.91
2023-03-12T02:33:35.571Z,97293.02
2023-03-12T02:36:18.994Z,97291.06
2023-03-12T02:38:56.263Z,97296.48
2023-03-12T02:41:58.637Z,97300.73
2023-03-12T02:44:53.673Z,97306.68
2023-03-12T02:47:25.196Z,97314.87
2023-03-12T02:49:59.208Z,97320.55
2023-03-12T02:52:35.676Z,97322.88
2023-03-12T02:55:08.813Z,97327.98
2023-03-12T02:57:44.404Z,97333.22
2023-03-12T03:00:38.531Z,97335.56
2023-03-12T03:03:26.409Z,97335.03
2023-03-12T03:06:15.293Z,97334.91
2023-03-12T03:09:09.932Z,97335.69
2023-03-12T03:11:43.404Z,97338.45
2023-03-12T03:14:11.896Z,97339.84
2023-03-12T03:16:40.776Z,97344.77
2023-03-12T03:19:14.132Z,97348.21
2023-03-12T03:22:14.129Z,97354.27
2023-03-12T03:24:45.458Z,97359.52
2023-03-12T03:27:16.749Z,97360.45
2023-03-12T03:29:52.698Z,97366.18
2023-03-12T03:32:43.925Z,97370.94
2023-03-12T03:35:22.837Z,97375.27
2023-03-12T03:37:51.553Z,97374.30
2023-03-12T03:40:28.668Z,97375.09
2023-03-12T03:43:38.704Z,97377.48
2023-03-12T03:46:08.250Z,97383.28
2023-03-12T03:48:59.154Z,97388.84
2023-03-12T03:51:52.413Z,97387.18
2023-03-12T03:54:28.228Z,97386.58
2023-03-12T03:57:39.974Z,97387.91
2023-03-12T04:00:36.207Z,97386.04
2023-03-12T04:03:08.633Z,97384.75
2023-03-12T04:06:13.070Z,97384.01
2023-03-12T04:08:57.432Z,97379.38
2023-03-12T04:11:27.986Z,97378.31
2023-03-12T04:13:58.729Z,97380.75
2023-03-12T04:16:48.869Z,97384.63
2023-03-12T04:19:46.021Z,97382.77
2023-03-12T04:22:14.794Z,97384.58
2023-03-12T04:25:14.388Z,97385.76
2023-03-12T04:27:43.108Z,97385.80
2023-03-12T04:30:54.753Z,97385.89
2023-03-12T04:33:57.129Z,97388.97
2023-03-12T04:36:52.348Z,97387.95
2023-03-12T04:40:05.280Z,97388.96
2023-03-12T04:42:50.545Z,97387.68
2023-03-12T04:45:20.091Z,97391.92
2023-03-12T04:47:51.978Z,97395.69
2023-03-12T04:50:47.818Z,97395.95
2023-03-12T04:53:19.927Z,97399.34
2023-03-12T04:56:01.302Z,97404.02
2023-03-12T04:58:50.266Z,97404.98
2023-03-12T05:01:38.885Z,97408.88
2023-03-12T05:04:50.300Z,97413.05
2023-03-12T05:07:38.726Z,97416.36
2023-03-12T05:10:07.825Z,97421.35
2023-03-12T05:12:36.113Z,97427.61
2023-03-12T05:15:07.434Z,97431.63
2023-03-12T05:17:56.129Z,97431.58
2023-03-12T05:20:24.789Z,97434.27
2023-03-12T05:22:53.590Z,97433.13
2023-03-12T05:25:22.513Z,97433.21
2023-03-12T05:28:04.423Z,97434.16
2023-03-12T05:30:56.344Z,97439.73
2023-03-12T05:33:26.305Z,97445.18
2023-03-12T05:35:54.788Z,97450.63
2023-03-12T05:38:26.940Z,97456.29
2023-03-12T05:40:59.232Z,97458.67
2023-03-12T05:43:29.175Z,97463.70
2023-03-12T05:46:05.069Z,97464.77
2023-03-12T05:48:36.815Z,97472.27
2023-03-12T05:51:05.829Z,97475.80
2023-03-12T05:53:34.645Z,97476.54
2023-03-12T05:56:08.896Z,97482.14
2023-03-12T05:58:38.217Z,97483.61
2023-03-12T06:01:33.856Z,97482.54
2023-03-12T06:04:07.255Z,97479.16
2023-03-12T06:06:56.245Z,97479.53
2023-03-12T06:09:24.618Z,97486.40
2023-03-12T06:11:57.764Z,97489.85
2023-03-12T06:14:25.839Z,97497.01
2023-03-12T06:16:58.667Z,97503.52
2023-03-12T06:19:26.733Z,97502.14
2023-03-12T06:22:00.833Z,97505.51
2023-03-12T06:24:29.316Z,97505.26
2023-03-12T06:27:20.453Z,97503.95
2023-03-12T06:29:48.900Z,97503.73
2023-03-12T06:32:22.180Z,97507.36
2023-03-12T06:34:50.720Z,97508.91
2023-03-12T06:37:29.641Z,97510.57
2023-03-12T06:39:58.308Z,97512.76
2023-03-12T06:42:40.554Z,97515.09
2023-03-12T06:45:12.274Z,97515.31
2023-03-12T06:47:40.827Z,97519.99
2023-03-12T06:50:10.437Z,97524.46
2023-03-12T06:52:40.833Z,97528.96
2023-03-12T06:55:12.405Z,97528.91
2023-03-12T06:58:04.742Z,97530.07
2023-03-12T07:00:39.161Z,97532.66
2023-03-12T07:03:11.534Z,97535.04
2023-03-12T07:06:19.510Z,97539.75
2023-03-12T07:08:49.053Z,97538.21
2023-03-12T07:11:27.931Z,97537.38
2023-03-12T07:14:03.651Z,97537.31
2023-03-12T07:16:32.330Z,97538.38
2023-03-12T07:19:24.073Z,97539.03
2023-03-12T07:21:58.077Z,97537.90
2023-03-12T07:24:39.637Z,97539.26
2023-03-12T07:27:11.355Z,97541.20
2023-03-12T07:29:58.635Z,97543.29
2023-03-12T07:33:13.261Z,97545.31
2023-03-12T07:36:18.720Z,97546.99
2023-03-12T07:39:08.213Z,97552.91
2023-03-12T07:41:39.461Z,97555.02
2023-03-12T07:45:01.119Z,97556.69
2023-03-12T07:47:51.714Z,97554.76
2023-03-12T07:51:03.086Z,97558.16
2023-03-12T07:54:12.400Z,97552.44
2023-03-12T07:56:41.022Z,97548.73
2023-03-12T07:59:09.747Z,97549.02
2023-03-12T08:01:43.303Z,97548.90
2023-03-12T08:04:43.480Z,97548.02
2023-03-12T08:07:47.758Z,97548.02
2023-03-12T08:11:28.467Z,97545.81
2023-03-12T08:14:12.878Z,97546.49
2023-03-12T08:16:41.430Z,97547.78
2023-03-12T08:19:33.690Z,97547.33
2023-03-12T08:22:24.752Z,97556.30
2023-03-12T08:25:05.087Z,97559.69
2023-03-12T08:27:43.423Z,97562.09
2023-03-12T08:30:30.470Z,97563.06
2023-03-12T08:33:15.399Z,97556.19
2023-03-12T08:36:06.676Z,97557.23
2023-03-12T08:39:25.441Z,97554.04
2023-03-12T08:42:19.183Z,97556.34
2023-03-12T08:44:53.877Z,97553.47
2023-03-12T08:48:06.402Z,97556.83
2023-03-12T08:51:25.626Z,97552.96
2023-03-12T08:54:36.917Z,97556.21
2023-03-12T08:57:08.220Z,97556.02
2023-03-12T08:59:50.767Z,97552.05
2023-03-12T09:02:52.519Z,97553.21
2023-03-12T09:05:25.541Z,97554.77
2023-03-12T09:08:37.279Z,97554.33
2023-03-12T09:12:31.145Z,97557.96
2023-03-12T09:16:10.262Z,97554.95
2023-03-12T09:19:22.740Z,97558.86
2023-03-12T09:21:59.280Z,97563.11
2023-03-12T09:24:45.650Z,97563.09
2023-03-12T09:27:40.805Z,97558.53
2023-03-12T09:30:27.319Z,97561.04
2023-03-12T09:33:16.056Z,97564.09
2023-03-12T09:36:16.142Z,97569.94
2023-03-12T09:38:47.488Z,97569.00
2023-03-12T09:41:28.623Z,97564.86
2023-03-12T09:44:32.865Z,97563.90
2023-03-12T09:47:10.779Z,97565.31
2023-03-12T09:50:26.144Z,97560.01
2023-03-12T09:53:47.930Z,97563.73
2023-03-12T09:56:22.891Z,97556.59
2023-03-12T09:58:55.835Z,97557.36
2023-03-12T10:01:33.718Z,97558.98
2023-03-12T10:04:31.011Z,97556.32
2023-03-12T10:07:28.001Z,97556.46
2023-03-12T10:10:50.689Z,97558.20
2023-03-12T10:14:24.819Z,97557.20
2023-03-12T10:17:39.088Z,97559.70
2023-03-12T10:20:35.340Z,97559.70
2023-03-12T10:24:14.277Z,97553.75
2023-03-12T10:26:57.758Z,97559.41
2023-03-12T10:29:53.226Z,97559.66
2023-03-12T10:32:44.513Z,97554.44
2023-03-12T10:35:24.558Z,97557.48
2023-03-12T10:37:59.589Z,97560.63
2023-03-12T10:40:30.227Z,97557.91
2023-03-12T10:43:19.026Z,97557.20
2023-03-12T10:45:59.544Z,97560.56
2023-03-12T10:48:33.406Z,97558.69
2023-03-12T10:51:03.772Z,97562.54
2023-03-12T10:54:19.630Z,97558.94
2023-03-12T10:57:06.095Z,97555.83
2023-03-12T10:59:37.196Z,97555.29
2023-03-12T11:03:03.806Z,97559.27
2023-03-12T11:05:37.531Z,97558.21
2023-03-12T11:08:32.306Z,97560.69
2023-03-12T11:11:13.617Z,97557.51
2023-03-12T11:13:57.182Z,97553.31
2023-03-12T11:16:32.121Z,97554.98
2023-03-12T11:19:42.354Z,97549.48
2023-03-12T11:22:31.842Z,97545.21
2023-03-12T11:25:27.388Z,97539.73
2023-03-12T11:28:16.138Z,97544.47
2023-03-12T11:31:07.488Z,97541.23
2023-03-12T11:34:57.715Z,97537.85
2023-03-12T11:37:46.940Z,97538.50
2023-03-12T11:40:59.538Z,97536.48
2023-03-12T11:44:23.283Z,97535.55
2023-03-12T11:47:02.309Z,97536.02
2023-03-12T11:50:02.198Z,97532.13
2023-03-12T11:53:18.848Z,97528.98
2023-03-12T11:56:03.431Z,97529.89
2023-03-12T11:58:44.018Z,97530.23
2023-03-12T12:01:44.573Z,97532.71
2023-03-12T12:21:39.697Z,97535.95
2023-03-12T12:24:29.441Z,97535.19
2023-03-12T12:27:30.137Z,97532.27
2023-03-12T12:30:05.415Z,97535.99
2023-03-12T12:33:15.631Z,97529.52
2023-03-12T12:36:04.454Z,97530.92
2023-03-12T12:39:24.224Z,97530.33
2023-03-12T12:42:39.214Z,97532.91
2023-03-12T12:45:18.323Z,97533.25
2023-03-12T12:48:12.226Z,97537.46
2023-03-12T12:50:47.962Z,97531.20
2023-03-12T12:54:02.967Z,97528.74
2023-03-12T12:56:48.375Z,97529.97
2023-03-12T12:59:28.525Z,97532.77
2023-03-12T13:02:37.049Z,97527.09
2023-03-12T13:05:56.285Z,97524.03
2023-03-12T13:09:16.234Z,97520.25
2023-03-12T13:12:14.775Z,97518.66
2023-03-12T13:14:48.267Z,97514.71
2023-03-12T13:17:55.316Z,97515.11
2023-03-12T13:20:57.009Z,97515.40
2023-03-12T13:23:33.357Z,97520.26
2023-03-12T13:26:43.384Z,97514.16
2023-03-12T13:29:33.297Z,97509.37
2023-03-12T13:32:09.199Z,97511.71
2023-03-12T13:34:46.965Z,97513.16
2023-03-12T13:38:04.584Z,97509.33
2023-03-12T13:41:40.389Z,97511.44
2023-03-12T13:44:47.556Z,97510.88
2023-03-12T13:47:55.034Z,97511.14
2023-03-12T13:51:09.723Z,97511.85
2023-03-12T13:54:14.654Z,97518.58
2023-03-12T13:57:05.486Z,97517.86
2023-03-12T14:00:02.810Z,97517.67
2023-03-12T14:02:42.917Z,97514.62
2023-03-12T14:05:14.982Z,97517.30
2023-03-12T14:07:58.339Z,97520.37
2023-03-12T14:11:03.531Z,97517.38
2023-03-12T14:13:43.711Z,97517.35
2023-03-12T14:16:30.868Z,97519.88
2023-03-12T14:18:59.825Z,97519.29
2023-03-12T14:21:36.047Z,97520.11
2023-03-12T14:24:08.665Z,97525.89
2023-03-12T14:27:07.453Z,97529.95
2023-03-12T14:29:56.887Z,97536.16
2023-03-12T14:32:52.918Z,97535.67
2023-03-12T14:35:29.676Z,97530.70
2023-03-12T14:38:22.225Z,97532.51
2023-03-12T14:41:21.607Z,97528.73
2023-03-12T14:44:02.785Z,97532.77
2023-03-12T14:46:54.746Z,97533.02
2023-03-12T14:50:02.659Z,97525.67
2023-03-12T14:52:48.146Z,97532.73
2023-03-12T14:55:50.312Z,97527.27
2023-03-12T14:58:43.115Z,97531.48
2023-03-12T15:01:34.604Z,97534.31
2023-03-12T15:04:34.222Z,97531.48
2023-03-12T15:07:17.879Z,97523.70
2023-03-12T15:10:17.504Z,97523.32
2023-03-12T15:13:47.539Z,97523.33
2023-03-12T15:16:40.060Z,97537.02
2023-03-12T15:19:28.144Z,97543.06
2023-03-12T15:21:57.334Z,97539.15
2023-03-12T15:24:45.756Z,97540.63
2023-03-12T15:27:34.825Z,97544.58
2023-03-12T15:30:46.754Z,97546.80
2023-03-12T15:33:19.155Z,97544.14
2023-03-12T15:36:39.296Z,97543.12
2023-03-12T15:39:48.758Z,97539.54
2023-03-12T15:42:24.852Z,97534.33
2023-03-12T15:45:25.726Z,97533.54
2023-03-12T15:47:57.438Z,97534.88
2023-03-12T15:50:33.817Z,97532.80
2023-03-12T15:53:25.976Z,97529.48
2023-03-12T15:56:23.707Z,97523.02
2023-03-12T15:59:26.112Z,97518.73
2023-03-12T16:02:34.297Z,97522.00
2023-03-12T16:05:10.593Z,97524.08
2023-03-12T16:07:41.352Z,97526.59
2023-03-12T16:10:37.700Z,97526.83
2023-03-12T16:13:16.755Z,97528.65
2023-03-12T16:15:47.760Z,97530.13
2023-03-12T16:18:38.017Z,97532.02
2023-03-12T16:21:06.666Z,97535.27
2023-03-12T16:23:37.999Z,97533.39
2023-03-12T16:26:13.841Z,97526.04
2023-03-12T16:28:45.701Z,97520.61
2023-03-12T16:31:19.780Z,97528.17
2023-03-12T16:33:50.789Z,97531.55
2023-03-12T16:36:19.272Z,97535.00
2023-03-12T16:38:49.718Z,97536.13
2023-03-12T16:41:19.857Z,97535.45
2023-03-12T16:43:51.514Z,97540.75
2023-03-12T16:46:24.295Z,97545.83
2023-03-12T16:49:16.977Z,97547.39
2023-03-12T16:51:49.674Z,97535.58
2023-03-12T16:54:17.784Z,97533.44
2023-03-12T16:57:09.118Z,97539.48
2023-03-12T16:59:44.597Z,97544.92
2023-03-12T17:02:22.148Z,97544.23
2023-03-12T17:04:51.193Z,97547.52
2023-03-12T17:07:30.031Z,97543.85
2023-03-12T17:09:58.389Z,97541.35
2023-03-12T17:12:38.934Z,97537.95
2023-03-12T17:15:33.558Z,97542.23
2023-03-12T17:18:04.869Z,97550.34
2023-03-12T17:20:36.194Z,97556.54
2023-03-12T17:23:06.040Z,97547.88
2023-03-12T17:25:41.154Z,97540.06
2023-03-12T17:28:15.606Z,97532.86
2023-03-12T17:30:54.577Z,97528.14
2023-03-12T17:33:25.916Z,97520.59
2023-03-12T17:36:20.572Z,97513.79
2023-03-12T17:38:53.733Z,97516.34
2023-03-12T17:41:26.773Z,97515.42
2023-03-12T17:44:18.802Z,97525.48
2023-03-12T17:47:07.023Z,97523.13
2023-03-12T17:49:38.951Z,97513.09
2023-03-12T17:52:07.938Z,97510.02
2023-03-12T17:54:42.264Z,97501.89
2023-03-12T17:57:11.077Z,97494.90
2023-03-12T17:59:42.344Z,97500.38
2023-03-12T18:02:18.704Z,97507.86
2023-03-12T18:04:50.598Z,97510.50
2023-03-12T18:07:21.821Z,97518.36
2023-03-12T18:09:49.789Z,97512.36
2023-03-12T18:12:18.023Z,97503.85
2023-03-12T18:14:45.893Z,97494.42
2023-03-12T18:17:13.764Z,97482.23
2023-03-12T18:19:41.998Z,97486.44
2023-03-12T18:22:14.218Z,97491.20
2023-03-12T18:24:42.571Z,97492.55
2023-03-12T18:27:10.477Z,97492.16
2023-03-12T18:29:40.613Z,97487.55
2023-03-12T18:32:09.210Z,97485.30
2023-03-12T18:34:42.392Z,97481.08
2023-03-12T18:37:13.531Z,97478.19
2023-03-12T18:39:54.646Z,97482.17
2023-03-12T18:42:45.070Z,97492.77
2023-03-12T18:45:16.572Z,97499.89
2023-03-12T18:47:50.864Z,97501.06
2023-03-12T18:50:21.916Z,97498.84
2023-03-12T18:53:10.179Z,97507.05
2023-03-12T18:55:38.607Z,97496.77
2023-03-12T18:58:09.556Z,97500.06
2023-03-12T19:00:38.013Z,97495.01
2023-03-12T19:03:05.977Z,97493.50
2023-03-12T19:05:34.159Z,97496.35
2023-03-12T19:08:08.666Z,97487.69
2023-03-12T19:10:54.945Z,97500.16
2023-03-12T19:13:52.963Z,97499.70
2023-03-12T19:16:24.067Z,97491.45
2023-03-12T19:19:09.577Z,97484.44
2023-03-12T19:21:38.558Z,97482.66
2023-03-12T19:24:06.651Z,97478.27
2023-03-12T19:26:37.402Z,97470.85
2023-03-12T19:30:06.521Z,97465.76
2023-03-12T19:32:57.977Z,97468.38
2023-03-12T19:35:26.988Z,97467.41
2023-03-12T19:37:56.055Z,97466.29
2023-03-12T19:40:30.195Z,97464.30
2023-03-12T19:42:59.078Z,97465.49
2023-03-12T19:45:33.872Z,97464.73
2023-03-12T19:48:11.665Z,97470.19
2023-03-12T19:50:40.764Z,97474.61
2023-03-12T19:53:12.331Z,97473.31
2023-03-12T19:55:41.150Z,97467.64
2023-03-12T19:58:09.332Z,97472.08
2023-03-12T20:00:37.378Z,97467.42
2023-03-12T20:03:09.758Z,97463.42
2023-03-12T20:05:38.245Z,97453.02
2023-03-12T20:08:09.958Z,97454.01
2023-03-12T20:10:59.481Z,97448.41
2023-03-12T20:13:35.761Z,97445.26
2023-03-12T20:16:05.225Z,97446.28
2023-03-12T20:18:34.173Z,97443.52
2023-03-12T20:21:03.095Z,97442.44
2023-03-12T20:23:31.542Z,97441.94
2023-03-12T20:25:59.770Z,97437.33
2023-03-12T20:28:28.252Z,97439.14
2023-03-12T20:30:57.714Z,97431.45
2023-03-12T20:33:25.997Z,97430.72
2023-03-12T20:35:56.255Z,97427.61
2023-03-12T20:38:24.326Z,97423.73
2023-03-12T20:40:55.229Z,97418.37
2023-03-12T20:43:23.525Z,97413.94
2023-03-12T20:45:54.330Z,97404.77
2023-03-12T20:48:25.050Z,97394.27
2023-03-12T20:50:55.753Z,97389.05
2023-03-12T20:53:30.651Z,97378.48
2023-03-12T20:56:01.571Z,97374.84
2023-03-12T20:58:50.170Z,97355.28
2023-03-12T21:01:18.491Z,97351.30
2023-03-12T21:03:56.316Z,97345.50
2023-03-12T21:06:33.605Z,97343.96
2023-03-12T21:09:23.252Z,97339.11
2023-03-12T21:11:51.323Z,97342.99
2023-03-12T21:14:30.242Z,97329.73
2023-03-12T21:17:01.184Z,97330.42
2023-03-12T21:19:43.058Z,97324.27
2023-03-12T21:22:21.770Z,97315.54
2023-03-12T21:24:50.686Z,97314.59
2023-03-12T21:27:18.958Z,97313.01
2023-03-12T21:30:07.712Z,97317.11
2023-03-12T21:32:36.253Z,97319.27
2023-03-12T21:35:05.363Z,97333.54
2023-03-12T21:37:37.356Z,97337.70
2023-03-12T21:40:36.826Z,97349.86
2023-03-12T21:43:14.211Z,97351.35
2023-03-12T21:46:26.820Z,97348.04
2023-03-12T21:49:48.166Z,97350.89
2023-03-12T21:52:18.690Z,97349.98
2023-03-12T21:54:57.343Z,97357.08
2023-03-12T21:57:57.613Z,97357.94
2023-03-12T22:00:26.131Z,97362.27
2023-03-12T22:02:54.509Z,97368.17
2023-03-12T22:05:26.481Z,97371.29
2023-03-12T22:07:57.390Z,97376.94
2023-03-12T22:10:36.280Z,97382.70
2023-03-12T22:13:09.887Z,97380.63
2023-03-12T22:15:48.221Z,97383.38
2023-03-12T22:18:21.514Z,97379.77
2023-03-12T22:21:43.064Z,97383.06
2023-03-12T22:24:25.466Z,97378.96
2023-03-12T22:27:09.581Z,97375.58
2023-03-12T22:29:37.739Z,97371.13
2023-03-12T22:32:43.145Z,97374.41
2023-03-12T22:35:15.115Z,97373.39
2023-03-12T22:38:05.929Z,97381.73
2023-03-12T22:40:50.156Z,97382.28
2023-03-12T22:43:39.197Z,97390.78
2023-03-12T22:46:07.463Z,97391.06
2023-03-12T22:49:06.679Z,97390.34
2023-03-12T22:52:18.684Z,97395.38
2023-03-12T22:54:46.867Z,97406.23
2023-03-12T22:58:16.088Z,97410.89
2023-03-12T23:01:01.602Z,97400.10
2023-03-12T23:03:34.725Z,97398.06
2023-03-12T23:06:50.724Z,97402.42
2023-03-12T23:09:39.586Z,97400.33
2023-03-12T23:12:11.803Z,97404.30
2023-03-12T23:15:43.571Z,97399.45
2023-03-12T23:18:44.486Z,97394.82
2023-03-12T23:21:59.110Z,97388.94
2023-03-12T23:25:10.123Z,97379.65
2023-03-12T23:28:18.755Z,97388.81
2023-03-12T23:31:37.599Z,97411.27
2023-03-12T23:34:09.931Z,97410.58
2023-03-12T23:36:57.040Z,97411.22
2023-03-12T23:39:53.512Z,97416.02
2023-03-12T23:42:54.213Z,97414.41
2023-03-12T23:45:34.447Z,97405.56
2023-03-12T23:48:40.576Z,97397.67
2023-03-12T23:51:12.615Z,97392.92
2023-03-12T23:54:22.769Z,97406.23
2023-03-12T23:57:05.184Z,97412.83
